Time;durP1;ratioP1;P1;durP2;ratioP2;P2;SDS_P1;SDS_P2;PMS_P1;PMS_P2;Temp;Humidity;BMP_temperature;BMP_pressure;BME280_temperature;BME280_humidity;BME280_pressure;Samples;Min_cycle;Max_cycle;Signal;HPM_P1;HPM_P2
2022/03/04 00:00:06;;;;;;;12.70;6.90;;;5.30;94.90;;;;;;7390111;19;20127;-79
2022/03/04 00:02:32;;;;;;;12.50;7.20;;;5.40;94.90;;;;;;7389463;19;20147;-78
2022/03/04 00:04:58;;;;;;;8.20;6.10;;;5.50;94.90;;;;;;7392885;19;20127;-77
2022/03/04 00:07:24;;;;;;;11.27;6.43;;;5.60;95.30;;;;;;7390320;19;20122;-75
2022/03/04 00:09:50;;;;;;;10.93;6.17;;;5.50;95.30;;;;;;7390852;19;20122;-77
2022/03/04 00:12:15;;;;;;;11.10;6.07;;;5.20;95.50;;;;;;7391726;19;20150;-78
2022/03/04 00:14:42;;;;;;;11.80;6.70;;;5.20;95.40;;;;;;7390715;19;20136;-78
2022/03/04 00:17:07;;;;;;;10.53;6.50;;;4.80;95.50;;;;;;7391713;19;20198;-78
2022/03/04 00:19:33;;;;;;;9.37;5.73;;;4.50;95.80;;;;;;7389663;19;20154;-77
2022/03/04 00:21:59;;;;;;;9.77;6.03;;;4.30;96.30;;;;;;7389001;19;20220;-78
2022/03/04 00:24:25;;;;;;;12.53;6.77;;;4.50;96.30;;;;;;7412227;19;20130;-77
2022/03/04 00:26:51;;;;;;;12.73;6.40;;;4.80;96.30;;;;;;7392719;19;20523;-77
2022/03/04 00:29:17;;;;;;;11.33;6.87;;;5.10;95.90;;;;;;7390762;19;20230;-75
2022/03/04 00:31:44;;;;;;;11.80;6.90;;;5.20;95.60;;;;;;7392475;19;20142;-75
2022/03/04 00:34:11;;;;;;;13.73;7.03;;;5.30;95.50;;;;;;7389293;19;20538;-75
2022/03/04 00:36:38;;;;;;;15.37;6.97;;;5.20;95.50;;;;;;7387907;19;20138;-76
2022/03/04 00:39:11;;;;;;;11.43;6.60;;;5.20;95.40;;;;;;7387557;19;20154;-78
2022/03/04 00:41:36;;;;;;;9.80;7.00;;;5.10;95.60;;;;;;7389215;19;20131;-78
2022/03/04 00:44:03;;;;;;;10.53;6.67;;;5.10;95.70;;;;;;7387971;19;20486;-78
2022/03/04 00:46:29;;;;;;;10.37;6.37;;;5.20;95.60;;;;;;7388988;19;20502;-77
2022/03/04 00:48:54;;;;;;;11.67;7.00;;;5.30;95.50;;;;;;7389149;19;20131;-76
2022/03/04 00:51:20;;;;;;;10.50;6.20;;;5.30;95.40;;;;;;7390280;19;20126;-75
2022/03/04 00:53:46;;;;;;;12.50;6.70;;;4.90;95.40;;;;;;7389580;19;20137;-75
2022/03/04 00:56:13;;;;;;;11.17;6.57;;;4.90;95.40;;;;;;7389476;19;20527;-76
2022/03/04 00:58:39;;;;;;;11.67;6.87;;;4.60;95.70;;;;;;7386992;19;20498;-76
2022/03/04 01:01:06;;;;;;;9.80;6.30;;;4.40;96.10;;;;;;7392335;19;20202;-78
2022/03/04 01:03:33;;;;;;;9.30;6.43;;;4.40;96.30;;;;;;7390978;19;20552;-77
2022/03/04 01:06:02;;;;;;;10.30;6.27;;;4.40;96.60;;;;;;7389317;19;20138;-76
2022/03/04 01:08:28;;;;;;;10.53;6.67;;;4.50;96.40;;;;;;7389011;19;20158;-75
2022/03/04 01:10:54;;;;;;;10.40;6.57;;;4.30;96.30;;;;;;7389901;19;20134;-78
2022/03/04 01:13:21;;;;;;;10.77;6.60;;;4.30;96.40;;;;;;7391012;19;20479;-77
2022/03/04 01:15:48;;;;;;;10.67;6.60;;;4.20;96.60;;;;;;7389761;19;20197;-75
2022/03/04 01:18:15;;;;;;;10.53;6.70;;;4.30;96.60;;;;;;7390198;19;20167;-75
2022/03/04 01:20:41;;;;;;;10.33;6.50;;;4.20;96.70;;;;;;7391224;19;20159;-78
2022/03/04 01:23:06;;;;;;;11.23;6.27;;;4.40;96.70;;;;;;7389621;19;20126;-78
2022/03/04 01:25:32;;;;;;;13.20;6.57;;;4.70;96.80;;;;;;7387451;19;20459;-77
2022/03/04 01:27:59;;;;;;;12.10;6.90;;;4.60;96.40;;;;;;7386461;19;20151;-75
2022/03/04 01:30:24;;;;;;;11.70;6.50;;;4.40;96.60;;;;;;7387833;19;20146;-77
2022/03/04 01:32:50;;;;;;;10.93;7.33;;;4.20;96.80;;;;;;7387572;19;20127;-78
2022/03/04 01:35:16;;;;;;;11.63;6.00;;;4.30;96.80;;;;;;7391168;19;20155;-75
2022/03/04 01:37:42;;;;;;;12.23;6.50;;;4.30;96.80;;;;;;7393480;19;20146;-78
2022/03/04 01:40:09;;;;;;;11.33;6.63;;;4.20;96.70;;;;;;7397614;19;20123;-76
2022/03/04 01:42:36;;;;;;;11.07;6.40;;;4.20;97.00;;;;;;7394092;19;20126;-78
2022/03/04 01:45:06;;;;;;;11.80;6.47;;;4.70;96.90;;;;;;7395303;19;20138;-75
2022/03/04 01:47:32;;;;;;;8.27;5.73;;;4.70;96.60;;;;;;7391758;19;20195;-78
2022/03/04 01:49:58;;;;;;;11.40;6.77;;;4.70;96.40;;;;;;7401454;19;20130;-77
2022/03/04 01:52:24;;;;;;;8.43;5.77;;;4.50;96.50;;;;;;7394312;19;20528;-77
2022/03/04 01:54:50;;;;;;;12.30;6.67;;;4.50;96.70;;;;;;7394079;19;20542;-77
2022/03/04 01:57:16;;;;;;;10.80;6.90;;;4.40;96.70;;;;;;7394273;19;20122;-76
2022/03/04 01:59:42;;;;;;;18.77;6.67;;;4.20;97.20;;;;;;7396552;19;20151;-76
2022/03/04 02:02:09;;;;;;;11.53;7.47;;;4.10;97.50;;;;;;7395180;19;20130;-79
2022/03/04 02:04:35;;;;;;;15.33;6.00;;;4.20;97.70;;;;;;7393471;19;20138;-78
2022/03/04 02:07:01;;;;;;;11.60;6.67;;;4.10;97.80;;;;;;7392784;19;20140;-78
2022/03/04 02:09:27;;;;;;;10.43;6.17;;;4.30;98.00;;;;;;7395213;19;20138;-75
2022/03/04 02:11:52;;;;;;;11.27;5.57;;;4.30;97.70;;;;;;7394999;19;20138;-77
2022/03/04 02:14:18;;;;;;;12.60;6.73;;;4.10;98.40;;;;;;7394804;19;20126;-75
2022/03/04 02:16:49;;;;;;;15.10;6.40;;;3.90;98.20;;;;;;7395162;19;20141;-75
2022/03/04 02:19:17;;;;;;;11.30;6.23;;;4.10;98.30;;;;;;7391622;19;20163;-76
2022/03/04 02:22:03;;;;;;;10.47;6.00;;;3.80;98.50;;;;;;7395481;19;20134;-78
2022/03/04 02:24:31;;;;;;;11.77;6.07;;;3.80;98.40;;;;;;7397347;19;20146;-76
2022/03/04 02:27:00;;;;;;;12.53;6.40;;;3.70;98.70;;;;;;7393661;19;20123;-75
2022/03/04 02:29:27;;;;;;;11.63;6.13;;;3.80;98.90;;;;;;7393167;19;20231;-78
2022/03/04 02:31:53;;;;;;;8.80;5.73;;;3.70;98.50;;;;;;7397355;19;20247;-75
2022/03/04 02:34:19;;;;;;;12.77;6.80;;;3.70;98.90;;;;;;7393161;19;20135;-77
2022/03/04 02:36:48;;;;;;;10.53;6.43;;;3.70;98.60;;;;;;7392764;19;20143;-77
2022/03/04 02:39:14;;;;;;;9.83;6.17;;;3.80;98.70;;;;;;7395314;19;20200;-75
2022/03/04 02:41:40;;;;;;;10.07;6.07;;;3.60;98.80;;;;;;7392181;19;20127;-79
2022/03/04 02:44:09;;;;;;;11.63;6.77;;;3.70;99.00;;;;;;7393684;19;20151;-76
2022/03/04 02:46:36;;;;;;;10.80;6.73;;;3.70;98.70;;;;;;7392570;19;20139;-78
2022/03/04 02:49:03;;;;;;;13.83;6.40;;;3.50;99.10;;;;;;7393493;19;20158;-75
2022/03/04 02:51:28;;;;;;;11.60;6.57;;;3.50;99.30;;;;;;7393314;19;20220;-77
2022/03/04 02:53:54;;;;;;;9.20;6.03;;;3.60;99.10;;;;;;7391541;19;20581;-76
2022/03/04 02:56:20;;;;;;;12.40;7.00;;;3.90;98.80;;;;;;7393838;19;20127;-76
2022/03/04 02:58:46;;;;;;;10.70;6.40;;;4.00;98.40;;;;;;7390349;19;20146;-76
2022/03/04 03:01:12;;;;;;;11.90;7.33;;;4.10;98.50;;;;;;7394388;19;20135;-77
2022/03/04 03:03:39;;;;;;;11.63;6.23;;;4.00;98.30;;;;;;7391754;19;20671;-75
2022/03/04 03:06:05;;;;;;;10.60;6.67;;;4.00;98.40;;;;;;7392510;19;20162;-75
2022/03/04 03:08:32;;;;;;;14.77;6.60;;;3.70;98.80;;;;;;7392463;19;20142;-77
2022/03/04 03:10:58;;;;;;;9.70;6.33;;;3.90;98.90;;;;;;7391433;19;20142;-78
2022/03/04 03:13:23;;;;;;;11.13;6.37;;;4.10;98.70;;;;;;7391757;19;20908;-78
2022/03/04 03:15:50;;;;;;;10.50;6.63;;;3.50;98.40;;;;;;7391218;19;20143;-78
2022/03/04 03:18:17;;;;;;;11.93;6.83;;;3.40;99.20;;;;;;7392971;19;20157;-79
2022/03/04 03:20:43;;;;;;;10.33;6.67;;;3.70;99.30;;;;;;7393558;19;20143;-78
2022/03/04 03:23:09;;;;;;;9.13;6.10;;;3.80;98.90;;;;;;7391764;19;20142;-76
2022/03/04 03:25:35;;;;;;;8.93;5.90;;;3.70;99.00;;;;;;7392476;19;20146;-75
2022/03/04 03:28:02;;;;;;;10.70;6.77;;;3.70;99.10;;;;;;7393027;19;20143;-75
2022/03/04 03:30:28;;;;;;;9.60;6.10;;;3.70;98.90;;;;;;7394697;19;20160;-75
2022/03/04 03:32:54;;;;;;;11.30;5.83;;;3.50;99.00;;;;;;7397207;19;20737;-75
2022/03/04 03:35:19;;;;;;;12.87;6.70;;;3.20;99.50;;;;;;7392530;19;20594;-75
2022/03/04 03:37:45;;;;;;;10.93;6.53;;;3.20;99.80;;;;;;7394042;19;20159;-77
2022/03/04 03:40:12;;;;;;;12.80;6.30;;;3.20;99.70;;;;;;7390926;19;20123;-78
2022/03/04 03:42:39;;;;;;;9.00;5.73;;;3.30;99.90;;;;;;7391641;19;20555;-76
2022/03/04 03:45:06;;;;;;;9.90;6.33;;;3.50;99.60;;;;;;7392624;19;20150;-78
2022/03/04 03:47:33;;;;;;;11.53;6.30;;;3.30;99.70;;;;;;7389296;19;20146;-78
2022/03/04 03:50:00;;;;;;;8.83;5.57;;;3.10;99.90;;;;;;7391190;19;20190;-77
2022/03/04 03:52:26;;;;;;;10.30;6.50;;;3.10;99.90;;;;;;7393242;19;20478;-75
2022/03/04 03:54:52;;;;;;;11.23;6.47;;;3.50;99.90;;;;;;7392524;19;20143;-77
2022/03/04 03:57:18;;;;;;;11.27;6.63;;;3.40;99.80;;;;;;7388536;19;20134;-75
2022/03/04 03:59:44;;;;;;;10.17;6.70;;;3.10;99.90;;;;;;7395064;19;20137;-75
2022/03/04 04:02:10;;;;;;;11.13;6.73;;;3.00;99.90;;;;;;7391520;19;20134;-78
2022/03/04 04:04:36;;;;;;;11.27;6.47;;;3.00;99.90;;;;;;7389323;19;20147;-79
2022/03/04 04:07:04;;;;;;;13.83;6.47;;;3.00;99.90;;;;;;7390456;19;20137;-78
2022/03/04 04:09:30;;;;;;;11.70;6.97;;;2.90;99.90;;;;;;7389436;19;20538;-77
2022/03/04 04:11:56;;;;;;;12.30;7.00;;;2.90;99.90;;;;;;7389764;19;20149;-76
2022/03/04 04:14:22;;;;;;;10.90;6.93;;;2.80;99.90;;;;;;7390922;19;20126;-76
2022/03/04 04:16:48;;;;;;;13.27;7.20;;;2.90;99.90;;;;;;7389116;19;20155;-78
2022/03/04 04:19:13;;;;;;;12.03;6.90;;;3.20;99.90;;;;;;7386484;19;20178;-75
2022/03/04 04:21:39;;;;;;;15.30;7.87;;;3.40;99.90;;;;;;7389116;19;20146;-77
2022/03/04 04:24:06;;;;;;;13.00;7.17;;;3.40;99.80;;;;;;7389896;19;20165;-78
2022/03/04 04:26:32;;;;;;;12.77;7.20;;;3.40;99.70;;;;;;7389439;19;20130;-78
2022/03/04 04:28:58;;;;;;;11.50;6.87;;;3.40;99.60;;;;;;7390117;19;20155;-75
2022/03/04 04:31:24;;;;;;;13.40;7.40;;;3.20;99.70;;;;;;7389653;19;20618;-75
2022/03/04 04:33:50;;;;;;;11.23;6.80;;;3.20;99.90;;;;;;7389855;19;20254;-77
2022/03/04 04:36:16;;;;;;;14.33;6.97;;;3.20;99.80;;;;;;7391711;19;20160;-74
2022/03/04 04:38:42;;;;;;;11.33;6.77;;;3.10;99.90;;;;;;7387564;19;20159;-77
2022/03/04 04:41:08;;;;;;;14.23;7.70;;;3.40;99.70;;;;;;7388951;19;20214;-76
2022/03/04 04:43:35;;;;;;;13.73;7.00;;;3.20;99.70;;;;;;7389432;19;20146;-73
2022/03/04 04:46:01;;;;;;;12.03;7.33;;;3.30;99.80;;;;;;7389035;19;20146;-78
2022/03/04 04:48:27;;;;;;;11.03;7.00;;;3.20;99.60;;;;;;7388265;19;20157;-75
2022/03/04 04:50:53;;;;;;;13.03;7.80;;;2.90;99.90;;;;;;7388128;19;20221;-76
2022/03/04 04:53:19;;;;;;;12.90;7.53;;;2.90;99.90;;;;;;7389270;19;20163;-77
2022/03/04 04:55:45;;;;;;;15.93;7.50;;;3.00;99.90;;;;;;7387815;19;20467;-75
2022/03/04 04:58:11;;;;;;;13.13;6.83;;;3.40;99.90;;;;;;7389926;19;20158;-75
2022/03/04 05:00:36;;;;;;;12.23;6.97;;;3.40;99.60;;;;;;7388847;19;20610;-78
2022/03/04 05:03:02;;;;;;;14.50;7.90;;;3.30;99.60;;;;;;7388158;19;20145;-76
2022/03/04 05:05:28;;;;;;;12.70;7.47;;;3.20;99.90;;;;;;7387988;19;20157;-77
2022/03/04 05:07:54;;;;;;;14.30;7.43;;;3.10;99.80;;;;;;7387030;19;20134;-75
2022/03/04 05:10:20;;;;;;;12.07;6.60;;;3.40;99.80;;;;;;7392291;19;20519;-78
2022/03/04 05:12:45;;;;;;;16.20;7.47;;;3.70;99.30;;;;;;7396963;19;20138;-75
2022/03/04 05:15:11;;;;;;;11.87;7.37;;;3.70;99.10;;;;;;7396751;19;20135;-75
2022/03/04 05:17:38;;;;;;;15.30;7.57;;;3.40;99.30;;;;;;7393479;19;20134;-78
2022/03/04 05:20:05;;;;;;;12.57;7.67;;;3.20;99.60;;;;;;7397130;19;20567;-78
2022/03/04 05:22:30;;;;;;;10.90;7.47;;;3.20;99.90;;;;;;7395934;19;20138;-76
2022/03/04 05:24:56;;;;;;;15.33;7.53;;;3.30;99.90;;;;;;7394999;19;20134;-78
2022/03/04 05:27:22;;;;;;;12.13;7.50;;;3.50;99.80;;;;;;7394051;19;20176;-78
2022/03/04 05:29:48;;;;;;;12.10;8.13;;;3.30;99.90;;;;;;7395724;19;20143;-77
2022/03/04 05:32:13;;;;;;;12.97;7.63;;;3.30;99.90;;;;;;7395647;19;20206;-73
2022/03/04 05:34:41;;;;;;;13.73;6.97;;;3.20;99.90;;;;;;7394557;19;20536;-78
2022/03/04 05:37:06;;;;;;;16.87;7.33;;;3.50;99.90;;;;;;7399465;19;20154;-75
2022/03/04 05:39:32;;;;;;;13.30;6.77;;;3.50;99.90;;;;;;7393891;19;20603;-73
2022/03/04 05:41:58;;;;;;;18.07;7.57;;;3.50;99.90;;;;;;7396168;19;20139;-77
2022/03/04 05:44:24;;;;;;;11.70;6.80;;;3.50;99.90;;;;;;7394178;19;20164;-74
2022/03/04 05:46:50;;;;;;;13.77;7.70;;;3.40;99.90;;;;;;7394684;19;20208;-75
2022/03/04 05:49:16;;;;;;;14.77;7.93;;;3.20;99.90;;;;;;7394543;19;20208;-79
2022/03/04 05:51:41;;;;;;;12.37;7.10;;;3.20;99.90;;;;;;7394206;19;20138;-76
2022/03/04 05:54:07;;;;;;;13.93;8.30;;;3.50;99.90;;;;;;7394583;19;20149;-78
2022/03/04 05:56:33;;;;;;;10.57;6.73;;;3.60;99.90;;;;;;7393508;19;20134;-75
2022/03/04 05:58:59;;;;;;;13.57;7.13;;;3.60;99.80;;;;;;7393612;19;20134;-77
2022/03/04 06:01:24;;;;;;;13.73;7.30;;;3.40;99.80;;;;;;7394906;19;20239;-74
2022/03/04 06:03:50;;;;;;;12.30;7.17;;;3.30;99.90;;;;;;7393111;19;20674;-74
2022/03/04 06:06:16;;;;;;;13.03;8.37;;;3.40;99.90;;;;;;7394230;19;20174;-76
2022/03/04 06:08:41;;;;;;;13.97;7.90;;;3.60;99.90;;;;;;7397912;19;20123;-73
2022/03/04 06:11:09;;;;;;;15.13;7.40;;;3.40;99.90;;;;;;7394571;19;20135;-77
2022/03/04 06:13:36;;;;;;;14.17;7.30;;;3.30;99.90;;;;;;7396054;19;20476;-78
2022/03/04 06:16:03;;;;;;;13.30;7.13;;;3.30;99.90;;;;;;7396233;19;21845;-79
2022/03/04 06:18:29;;;;;;;13.93;7.30;;;3.20;99.90;;;;;;7394765;19;20163;-78
2022/03/04 06:20:55;;;;;;;16.07;8.17;;;2.80;99.90;;;;;;7393601;19;20139;-76
2022/03/04 06:23:21;;;;;;;13.63;7.77;;;2.90;99.90;;;;;;7395176;19;20154;-74
2022/03/04 06:25:47;;;;;;;11.70;7.33;;;3.20;99.90;;;;;;7395953;19;20141;-78
2022/03/04 06:28:13;;;;;;;11.50;7.70;;;3.20;99.90;;;;;;7395542;19;20499;-74
2022/03/04 06:30:39;;;;;;;13.33;7.50;;;3.30;99.90;;;;;;7394661;19;20141;-79
2022/03/04 06:33:51;;;;;;;13.53;7.63;;;3.10;99.90;;;;;;7392882;19;20203;-74
2022/03/04 06:35:53;;;;;;;13.00;7.33;;;2.90;99.90;;;;;;7393447;19;20153;-78
2022/03/04 06:38:19;;;;;;;15.17;7.73;;;2.80;99.90;;;;;;7394640;19;20143;-74
2022/03/04 06:40:46;;;;;;;15.53;7.10;;;2.60;99.90;;;;;;7395661;19;20402;-73
2022/03/04 06:43:12;;;;;;;16.73;8.20;;;2.90;99.90;;;;;;7396521;19;20150;-78
2022/03/04 06:45:41;;;;;;;13.73;8.13;;;3.10;99.90;;;;;;7393650;19;20154;-75
2022/03/04 06:48:07;;;;;;;14.53;7.80;;;3.10;99.90;;;;;;7394811;19;20215;-75
2022/03/04 06:50:33;;;;;;;12.43;7.50;;;3.10;99.90;;;;;;7397431;19;20651;-78
2022/03/04 06:52:59;;;;;;;11.40;6.80;;;3.00;99.90;;;;;;7394053;19;20130;-78
2022/03/04 06:55:25;;;;;;;13.83;7.40;;;2.70;99.90;;;;;;7393062;19;20156;-79
2022/03/04 06:57:51;;;;;;;13.80;8.27;;;2.90;99.90;;;;;;7389992;19;20475;-76
2022/03/04 07:00:18;;;;;;;19.27;8.80;;;3.20;99.90;;;;;;7390979;19;20135;-75
2022/03/04 07:02:44;;;;;;;15.03;7.87;;;3.20;99.90;;;;;;7391711;19;20169;-75
2022/03/04 07:05:10;;;;;;;12.27;7.77;;;3.40;99.90;;;;;;7391562;19;20135;-79
2022/03/04 07:07:36;;;;;;;12.77;7.63;;;3.50;99.90;;;;;;7394173;19;20134;-74
2022/03/04 07:10:04;;;;;;;16.53;8.13;;;3.50;99.90;;;;;;7393620;19;20689;-73
2022/03/04 07:12:30;;;;;;;16.47;7.80;;;3.50;99.90;;;;;;7390673;19;20138;-78
2022/03/04 07:14:56;;;;;;;14.60;8.40;;;3.60;99.90;;;;;;7390976;19;20899;-74
2022/03/04 07:17:22;;;;;;;15.93;8.20;;;3.60;99.90;;;;;;7391951;19;20232;-74
2022/03/04 07:19:48;;;;;;;14.40;8.47;;;3.60;99.90;;;;;;7390464;19;20142;-79
2022/03/04 07:22:14;;;;;;;17.43;8.73;;;3.50;99.90;;;;;;7393527;19;20138;-79
2022/03/04 07:24:40;;;;;;;16.57;8.50;;;3.60;99.90;;;;;;7392759;19;20607;-79
2022/03/04 07:27:06;;;;;;;16.03;8.50;;;3.60;99.90;;;;;;7392911;19;20131;-74
2022/03/04 07:29:32;;;;;;;14.90;7.63;;;3.70;99.90;;;;;;7391723;19;20148;-75
2022/03/04 07:31:58;;;;;;;15.97;9.03;;;3.80;99.90;;;;;;7388222;19;20138;-74
2022/03/04 07:34:24;;;;;;;18.27;9.37;;;3.80;99.90;;;;;;7390413;19;20138;-74
2022/03/04 07:36:51;;;;;;;15.00;8.50;;;3.80;99.90;;;;;;7394213;19;20592;-79
2022/03/04 07:39:17;;;;;;;14.67;8.30;;;3.80;99.90;;;;;;7390136;19;20195;-76
2022/03/04 07:41:43;;;;;;;14.07;7.93;;;3.80;99.90;;;;;;7389547;19;20127;-74
2022/03/04 07:44:13;;;;;;;15.67;8.63;;;3.90;99.90;;;;;;7389847;19;20151;-74
2022/03/04 07:46:38;;;;;;;20.20;7.50;;;4.00;99.90;;;;;;7388110;19;20166;-78
2022/03/04 07:49:04;;;;;;;14.57;8.10;;;4.10;99.90;;;;;;7391395;19;20194;-78
2022/03/04 07:51:30;;;;;;;20.70;8.80;;;3.80;99.90;;;;;;7390317;19;20146;-75
2022/03/04 07:53:56;;;;;;;14.43;8.40;;;3.90;99.90;;;;;;7389059;19;20197;-77
2022/03/04 07:56:22;;;;;;;14.27;8.27;;;4.00;99.90;;;;;;7388784;19;20134;-79
2022/03/04 07:58:48;;;;;;;17.83;8.57;;;3.90;99.90;;;;;;7386403;19;20141;-74
2022/03/04 08:01:14;;;;;;;13.67;8.27;;;3.90;99.90;;;;;;7387511;19;20549;-75
2022/03/04 08:03:40;;;;;;;24.57;9.83;;;4.00;99.90;;;;;;7389852;19;20140;-75
2022/03/04 08:06:07;;;;;;;16.00;10.07;;;4.10;99.90;;;;;;7391648;19;20388;-74
2022/03/04 08:08:34;;;;;;;18.57;9.87;;;4.20;99.90;;;;;;7395953;19;20141;-76
2022/03/04 08:11:01;;;;;;;18.17;9.10;;;4.30;99.60;;;;;;7392586;19;20130;-74
2022/03/04 08:13:29;;;;;;;17.37;8.50;;;4.20;99.40;;;;;;7391450;19;20546;-74
2022/03/04 08:15:57;;;;;;;16.27;9.70;;;4.20;99.50;;;;;;7394290;19;20131;-73
2022/03/04 08:18:24;;;;;;;18.63;9.27;;;4.30;99.30;;;;;;7393996;19;20154;-78
2022/03/04 08:20:50;;;;;;;15.87;9.57;;;4.20;99.30;;;;;;7396004;19;20138;-78
2022/03/04 08:23:20;;;;;;;14.50;8.90;;;4.30;99.20;;;;;;7393430;19;20658;-77
2022/03/04 08:25:46;;;;;;;18.60;9.33;;;4.20;99.10;;;;;;7392315;19;20151;-73
2022/03/04 08:28:14;;;;;;;17.77;8.67;;;4.20;99.10;;;;;;7389616;19;20518;-73
2022/03/04 08:30:40;;;;;;;17.07;8.77;;;4.30;99.20;;;;;;7391432;19;20226;-75
2022/03/04 08:33:05;;;;;;;16.27;9.20;;;4.30;99.20;;;;;;7390449;19;20172;-75
2022/03/04 08:35:31;;;;;;;15.00;9.53;;;4.30;99.10;;;;;;7392422;19;20149;-78
2022/03/04 08:37:57;;;;;;;18.38;9.80;;;4.30;99.10;;;;;;7388781;19;20426;-74
2022/03/04 08:40:23;;;;;;;16.07;9.93;;;4.30;98.90;;;;;;7390947;19;20154;-75
2022/03/04 08:42:49;;;;;;;16.33;9.33;;;4.40;99.20;;;;;;7393810;19;20135;-78
2022/03/04 08:45:15;;;;;;;19.07;9.37;;;4.40;98.90;;;;;;7391239;19;20136;-78
2022/03/04 08:47:43;;;;;;;17.50;9.03;;;4.80;99.00;;;;;;7389993;19;20214;-77
2022/03/04 08:50:11;;;;;;;16.50;8.33;;;4.70;98.50;;;;;;7389932;19;20179;-77
2022/03/04 08:52:37;;;;;;;18.63;9.27;;;4.80;98.40;;;;;;7391218;19;20131;-77
2022/03/04 08:55:07;;;;;;;16.57;9.30;;;4.80;98.50;;;;;;7391590;19;20132;-77
2022/03/04 08:57:34;;;;;;;18.23;10.60;;;4.90;98.40;;;;;;7391735;19;20138;-79
2022/03/04 09:00:00;;;;;;;18.17;10.60;;;4.90;98.30;;;;;;7391151;19;20141;-78
2022/03/04 09:02:26;;;;;;;15.00;9.47;;;4.90;98.30;;;;;;7390119;19;20142;-76
2022/03/04 09:04:52;;;;;;;19.47;9.97;;;5.10;98.20;;;;;;7389699;19;20150;-77
2022/03/04 09:07:18;;;;;;;18.33;10.23;;;5.20;98.10;;;;;;7389553;19;20145;-75
2022/03/04 09:09:44;;;;;;;19.23;9.67;;;5.20;97.80;;;;;;7388820;19;20131;-79
2022/03/04 09:12:10;;;;;;;17.47;9.10;;;5.30;97.50;;;;;;7391846;19;20127;-78
2022/03/04 09:14:36;;;;;;;18.43;9.33;;;5.30;97.20;;;;;;7390941;19;20131;-79
2022/03/04 09:17:03;;;;;;;16.67;9.60;;;5.40;97.20;;;;;;7390973;19;20142;-74
2022/03/04 09:19:30;;;;;;;17.07;10.13;;;5.50;97.30;;;;;;7390145;19;20166;-75
2022/03/04 09:21:57;;;;;;;18.00;10.07;;;5.50;97.00;;;;;;7390531;19;20171;-78
2022/03/04 09:24:23;;;;;;;17.50;9.87;;;5.60;97.20;;;;;;7390765;19;20151;-78
2022/03/04 09:26:49;;;;;;;16.33;9.43;;;5.70;96.80;;;;;;7388596;19;20178;-74
2022/03/04 09:29:15;;;;;;;20.47;10.50;;;5.80;96.80;;;;;;7388154;19;20171;-76
2022/03/04 09:31:41;;;;;;;16.87;9.57;;;5.90;96.60;;;;;;7389763;19;20135;-74
2022/03/04 09:34:07;;;;;;;18.73;9.50;;;6.00;96.50;;;;;;7386953;19;20213;-78
2022/03/04 09:36:33;;;;;;;20.70;10.30;;;6.00;96.40;;;;;;7389728;19;20575;-77
2022/03/04 09:38:59;;;;;;;15.57;9.37;;;6.30;96.10;;;;;;7388582;19;20142;-75
2022/03/04 09:41:28;;;;;;;19.73;10.40;;;6.50;95.60;;;;;;7389365;19;20254;-74
2022/03/04 09:43:55;;;;;;;20.00;10.70;;;6.50;95.50;;;;;;7388021;19;20154;-78
2022/03/04 09:46:21;;;;;;;20.20;10.83;;;6.50;95.50;;;;;;7387649;19;20549;-75
2022/03/04 09:48:52;;;;;;;19.27;11.27;;;6.50;95.50;;;;;;7387335;19;20142;-77
2022/03/04 09:51:20;;;;;;;18.57;10.63;;;6.60;95.10;;;;;;7388839;19;20131;-77
2022/03/04 09:53:46;;;;;;;18.83;10.50;;;6.60;95.30;;;;;;7387417;19;20147;-75
2022/03/04 09:56:13;;;;;;;15.90;10.47;;;6.70;95.60;;;;;;7394291;19;20510;-73
2022/03/04 09:58:39;;;;;;;19.27;10.70;;;6.90;95.00;;;;;;7394470;19;20131;-78
2022/03/04 10:01:13;;;;;;;20.07;10.67;;;6.90;94.70;;;;;;7394914;19;20202;-74
2022/03/04 10:03:47;;;;;;;19.43;11.23;;;7.10;94.80;;;;;;7392998;19;20150;-78
2022/03/04 10:06:14;;;;;;;17.43;10.23;;;7.20;94.20;;;;;;7395383;19;20662;-78
2022/03/04 10:08:50;;;;;;;17.43;11.20;;;7.30;94.10;;;;;;7397145;19;20692;-78
2022/03/04 10:11:26;;;;;;;17.63;10.27;;;7.20;93.80;;;;;;7396520;19;20169;-77
2022/03/04 10:13:56;;;;;;;17.60;10.20;;;7.10;93.70;;;;;;7397960;19;20142;-75
2022/03/04 10:16:27;;;;;;;17.40;10.17;;;7.10;94.10;;;;;;7397945;19;20169;-73
2022/03/04 10:19:16;;;;;;;19.07;10.70;;;7.30;93.90;;;;;;7392244;19;20763;-79
2022/03/04 10:21:48;;;;;;;17.23;9.70;;;7.40;93.40;;;;;;7395165;19;20236;-73
2022/03/04 10:24:21;;;;;;;16.50;9.90;;;7.40;93.40;;;;;;7396776;19;20149;-77
2022/03/04 10:26:56;;;;;;;16.43;10.03;;;7.40;93.00;;;;;;7393294;19;20586;-77
2022/03/04 10:29:24;;;;;;;17.77;9.97;;;7.50;92.90;;;;;;7394564;19;20164;-73
2022/03/04 10:32:11;;;;;;;18.40;9.80;;;7.60;92.60;;;;;;7396212;19;20131;-77
2022/03/04 10:34:52;;;;;;;16.67;10.00;;;7.60;92.40;;;;;;7395605;19;20184;-77
2022/03/04 10:37:22;;;;;;;19.53;10.30;;;7.70;92.50;;;;;;7394278;19;20139;-74
2022/03/04 10:40:08;;;;;;;17.50;9.97;;;7.70;92.00;;;;;;7392454;19;20155;-73
2022/03/04 10:43:06;;;;;;;16.80;9.80;;;7.70;91.80;;;;;;7394514;19;20130;-76
2022/03/04 10:45:34;;;;;;;16.47;9.90;;;8.00;91.90;;;;;;7389194;19;20657;-77
2022/03/04 10:48:19;;;;;;;19.27;10.73;;;8.10;91.50;;;;;;7392372;19;20143;-77
2022/03/04 10:50:57;;;;;;;14.40;9.80;;;8.20;91.30;;;;;;7393370;19;20171;-74
2022/03/04 10:53:28;;;;;;;16.50;9.97;;;8.20;91.10;;;;;;7396682;19;20161;-75
2022/03/04 10:55:56;;;;;;;17.33;9.93;;;8.10;90.80;;;;;;7393802;19;20153;-76
2022/03/04 10:58:37;;;;;;;16.47;10.43;;;7.80;91.50;;;;;;7392210;19;20198;-74
2022/03/04 11:01:18;;;;;;;16.67;9.77;;;8.10;91.00;;;;;;7396121;19;20122;-77
2022/03/04 11:03:45;;;;;;;17.20;10.10;;;8.20;90.90;;;;;;7393167;19;20155;-74
2022/03/04 11:06:15;;;;;;;18.33;10.27;;;8.20;90.50;;;;;;7392777;19;20221;-77
2022/03/04 11:08:42;;;;;;;17.93;10.17;;;8.20;90.70;;;;;;7390230;19;20157;-74
2022/03/04 11:11:08;;;;;;;15.97;9.70;;;8.40;90.30;;;;;;7393809;19;20155;-75
2022/03/04 11:13:34;;;;;;;19.37;11.07;;;8.40;90.20;;;;;;7394169;19;20138;-76
2022/03/04 11:16:03;;;;;;;15.20;10.17;;;8.40;90.20;;;;;;7394055;19;20581;-74
2022/03/04 11:18:29;;;;;;;14.93;9.07;;;8.50;90.00;;;;;;7391528;19;20170;-76
2022/03/04 11:20:56;;;;;;;16.53;10.13;;;8.20;90.00;;;;;;7392853;19;20154;-76
2022/03/04 11:23:24;;;;;;;18.87;10.23;;;8.60;90.00;;;;;;7393906;19;20154;-74
2022/03/04 11:26:01;;;;;;;16.50;10.10;;;8.70;90.10;;;;;;7391741;19;20141;-74
2022/03/04 11:28:41;;;;;;;19.57;10.33;;;8.90;89.70;;;;;;7395953;19;20142;-77
2022/03/04 11:31:12;;;;;;;16.30;10.07;;;9.00;89.30;;;;;;7393606;19;20684;-73
2022/03/04 11:33:54;;;;;;;19.47;10.77;;;9.00;89.10;;;;;;7395420;19;20598;-77
2022/03/04 11:36:22;;;;;;;18.63;10.40;;;9.30;87.50;;;;;;7394112;19;20598;-76
2022/03/04 11:38:48;;;;;;;16.90;9.20;;;9.30;87.00;;;;;;7389624;19;20135;-73
2022/03/04 11:41:16;;;;;;;19.40;10.50;;;9.20;87.10;;;;;;7394611;19;20216;-80
2022/03/04 11:43:50;;;;;;;17.27;9.40;;;9.20;87.00;;;;;;7392896;19;20134;-71
2022/03/04 11:46:20;;;;;;;17.07;9.70;;;9.30;86.00;;;;;;7393971;19;20151;-76
2022/03/04 11:48:47;;;;;;;15.70;8.77;;;9.30;85.40;;;;;;7392301;19;20147;-75
2022/03/04 11:51:22;;;;;;;15.90;9.23;;;9.20;84.50;;;;;;7392196;19;20206;-74
2022/03/04 11:54:23;;;;;;;14.90;8.77;;;9.20;83.80;;;;;;7391872;19;20198;-74
2022/03/04 11:56:53;;;;;;;14.37;8.60;;;9.30;83.40;;;;;;7392454;19;20162;-76
2022/03/04 11:59:20;;;;;;;16.47;9.23;;;9.50;84.00;;;;;;7381333;19;20185;-75
2022/03/04 12:01:46;;;;;;;13.57;8.80;;;9.70;81.70;;;;;;7378531;19;20174;-76
2022/03/04 12:04:19;;;;;;;13.33;7.83;;;9.70;79.00;;;;;;7379627;19;20134;-75
2022/03/04 12:07:06;;;;;;;15.60;8.63;;;9.70;78.70;;;;;;7382773;19;20598;-77
2022/03/04 12:09:32;;;;;;;12.90;9.07;;;9.50;79.20;;;;;;7383332;19;20733;-77
2022/03/04 12:12:38;;;;;;;15.13;8.20;;;9.40;80.90;;;;;;7379278;19;20149;-74
2022/03/04 12:15:16;;;;;;;31.50;14.83;;;9.80;79.70;;;;;;7386528;19;20134;-76
2022/03/04 12:18:21;;;;;;;13.03;7.57;;;10.10;77.10;;;;;;7385342;19;20194;-81
2022/03/04 12:20:46;;;;;;;12.03;7.70;;;10.00;75.50;;;;;;7386170;19;20147;-76
2022/03/04 12:23:57;;;;;;;12.30;7.27;;;10.00;76.80;;;;;;7387684;19;20131;-75
2022/03/04 12:26:33;;;;;;;14.33;7.17;;;10.00;77.60;;;;;;7388935;19;20154;-76
2022/03/04 12:29:08;;;;;;;13.27;7.63;;;10.10;76.10;;;;;;7396720;19;20147;-75
2022/03/04 12:31:39;;;;;;;11.03;7.23;;;10.40;74.40;;;;;;7392705;19;20798;-75
2022/03/04 12:34:27;;;;;;;12.60;6.97;;;10.40;72.50;;;;;;7390186;19;20697;-75
2022/03/04 12:36:58;;;;;;;10.93;6.80;;;10.30;72.10;;;;;;7389640;19;20158;-74
2022/03/04 12:39:25;;;;;;;13.10;7.33;;;10.20;71.80;;;;;;7392502;19;20138;-73
2022/03/04 12:41:57;;;;;;;10.27;6.73;;;10.20;72.00;;;;;;7392788;19;20131;-74
2022/03/04 12:44:27;;;;;;;11.53;7.33;;;10.30;72.40;;;;;;7393471;19;20202;-74
2022/03/04 12:46:53;;;;;;;11.43;7.27;;;10.40;72.40;;;;;;7388237;19;20150;-75
2022/03/04 12:49:28;;;;;;;12.47;7.20;;;10.50;72.10;;;;;;7394362;19;20158;-77